Keesler Air Force Base
KBIX : now visible

Airfield :











YOU CAN JOIN US ON...

 
LOGIN :

Register | Disclaimer

   EN    FR    IT 

 









Legend :    VFR   Marginal VFR   IFR   Intensive IFR   Very Intensive IFR
Visi :
Ceiling :
>= 8 km
>= 3000ft
5 to 8 km
1000 to 3000 ft
1500m to 5 km
500 to 1000 ft
800 to 1500m
200 to 500 ft
< 800m
< 200 ft
Symbols :   Thunderstorms  Fog  Heavy snow  Heavy precipitations  Wind > 20 kt






- Airport Elevation : 33 ft


KBIX - Keesler Air Force Base

METAR N/A
TAF AMD TAF KBIX
Valid from the 27 at 21:00 until the 29 at 00:00 UTC


272109Z 2721/2824 10010G15KT 9999 BKN050 QNH2993INS
BECMG 2800/2801 09006KT 9999 SCT004 SCT030 SCT180 QNH2998INS
BECMG 2817/2818 13012G18KT 8000 -SHRA OVC020 QNH2987INS
TEMPO 2820/2824 VRB20G30KT 6000 -TSRA FEW005 OVC015CB TX26/2817Z TN24/2803Z
KZHU FIR / North America



MET'MAP, your aeronautical weather chart ! - Copyright ORBIFLY December 2007 - Disclaimer

ORBIFLY MET'MAP TEAM :

Programming & Development : Alexandra Zaïnal
Concept & original design : Baudouin d'Aumeries
Assistance for programming : Marc-Olivier Méhu
Technical & hardware support : Manuel Goepfert

Contact : metmap@orbifly.com




SOURCES & CREDITS :

   NOAA       Earth
Advisory